sensor_id;sensor_type;location;lat;lon;timestamp;pressure;altitude;pressure_sealevel;temperature;humidity
55466;BME280;41329;41.594;23.810;2023-08-31T00:01:47;94725.19;;;20.75;45.70
55466;BME280;41329;41.594;23.810;2023-08-31T00:04:18;94723.75;;;20.71;46.24
55466;BME280;41329;41.594;23.810;2023-08-31T00:06:44;94736.88;;;20.74;46.16
55466;BME280;41329;41.594;23.810;2023-08-31T00:09:12;94713.28;;;20.59;46.24
55466;BME280;41329;41.594;23.810;2023-08-31T00:11:37;94730.16;;;20.59;46.15
55466;BME280;41329;41.594;23.810;2023-08-31T00:14:03;94730.25;;;20.55;46.15
55466;BME280;41329;41.594;23.810;2023-08-31T00:16:29;94746.44;;;20.64;46.24
55466;BME280;41329;41.594;23.810;2023-08-31T00:18:56;94735.06;;;20.67;45.94
55466;BME280;41329;41.594;23.810;2023-08-31T00:21:22;94723.28;;;20.60;45.65
55466;BME280;41329;41.594;23.810;2023-08-31T00:23:48;94728.69;;;20.67;45.29
55466;BME280;41329;41.594;23.810;2023-08-31T00:26:13;94734.53;;;20.60;45.18
55466;BME280;41329;41.594;23.810;2023-08-31T00:28:40;94733.06;;;20.43;45.36
55466;BME280;41329;41.594;23.810;2023-08-31T00:31:10;94738.56;;;20.34;45.77
55466;BME280;41329;41.594;23.810;2023-08-31T00:33:38;94732.72;;;20.28;45.93
55466;BME280;41329;41.594;23.810;2023-08-31T00:36:04;94726.75;;;20.26;46.52
55466;BME280;41329;41.594;23.810;2023-08-31T00:38:30;94741.72;;;20.36;46.63
55466;BME280;41329;41.594;23.810;2023-08-31T00:40:56;94733.41;;;20.32;46.40
55466;BME280;41329;41.594;23.810;2023-08-31T00:43:22;94742.06;;;20.38;46.52
55466;BME280;41329;41.594;23.810;2023-08-31T00:45:53;94737.88;;;20.42;46.18
55466;BME280;41329;41.594;23.810;2023-08-31T00:48:22;94720.78;;;20.37;46.23
55466;BME280;41329;41.594;23.810;2023-08-31T00:50:47;94748.47;;;20.51;46.00
55466;BME280;41329;41.594;23.810;2023-08-31T00:53:14;94745.66;;;20.51;45.93
55466;BME280;41329;41.594;23.810;2023-08-31T00:55:40;94733.38;;;20.45;45.87
55466;BME280;41329;41.594;23.810;2023-08-31T00:58:07;94729.59;;;20.39;45.90
55466;BME280;41329;41.594;23.810;2023-08-31T01:12:00;94749.47;;;20.44;45.95
55466;BME280;41329;41.594;23.810;2023-08-31T01:14:33;94756.66;;;20.45;45.51
55466;BME280;41329;41.594;23.810;2023-08-31T01:17:01;94745.63;;;20.38;45.43
55466;BME280;41329;41.594;23.810;2023-08-31T01:19:43;94754.75;;;20.42;45.85
55466;BME280;41329;41.594;23.810;2023-08-31T01:22:13;94751.03;;;20.33;45.73
55466;BME280;41329;41.594;23.810;2023-08-31T01:24:39;94762.50;;;19.97;46.67
55466;BME280;41329;41.594;23.810;2023-08-31T01:27:06;94737.03;;;19.63;47.02
55466;BME280;41329;41.594;23.810;2023-08-31T01:29:32;94753.97;;;19.60;47.72
55466;BME280;41329;41.594;23.810;2023-08-31T01:31:57;94747.34;;;19.54;48.08
55466;BME280;41329;41.594;23.810;2023-08-31T01:34:23;94740.41;;;19.42;48.47
55466;BME280;41329;41.594;23.810;2023-08-31T01:36:56;94757.31;;;19.55;49.20
55466;BME280;41329;41.594;23.810;2023-08-31T01:39:24;94743.91;;;19.46;48.94
55466;BME280;41329;41.594;23.810;2023-08-31T01:41:58;94742.25;;;19.49;48.66
55466;BME280;41329;41.594;23.810;2023-08-31T01:44:26;94767.19;;;19.59;48.98
55466;BME280;41329;41.594;23.810;2023-08-31T01:47:02;94757.66;;;19.57;48.41
55466;BME280;41329;41.594;23.810;2023-08-31T01:49:28;94753.81;;;19.51;48.46
55466;BME280;41329;41.594;23.810;2023-08-31T01:51:53;94771.50;;;19.64;48.55
55466;BME280;41329;41.594;23.810;2023-08-31T01:54:18;94770.25;;;19.65;49.03
55466;BME280;41329;41.594;23.810;2023-08-31T01:56:44;94760.38;;;19.60;48.79
55466;BME280;41329;41.594;23.810;2023-08-31T01:59:09;94764.41;;;19.59;48.68
55466;BME280;41329;41.594;23.810;2023-08-31T02:01:35;94774.41;;;19.60;48.39
55466;BME280;41329;41.594;23.810;2023-08-31T02:04:01;94777.16;;;19.48;48.42
55466;BME280;41329;41.594;23.810;2023-08-31T02:06:26;94770.59;;;19.38;48.76
55466;BME280;41329;41.594;23.810;2023-08-31T02:08:52;94780.75;;;19.48;48.97
55466;BME280;41329;41.594;23.810;2023-08-31T02:11:17;94787.59;;;19.47;48.99
55466;BME280;41329;41.594;23.810;2023-08-31T02:13:42;94772.38;;;19.32;49.05
55466;BME280;41329;41.594;23.810;2023-08-31T02:16:08;94777.88;;;19.36;49.23
55466;BME280;41329;41.594;23.810;2023-08-31T02:18:33;94786.81;;;19.47;49.37
55466;BME280;41329;41.594;23.810;2023-08-31T02:20:59;94771.75;;;19.41;48.95
55466;BME280;41329;41.594;23.810;2023-08-31T02:23:24;94770.25;;;19.36;48.92
55466;BME280;41329;41.594;23.810;2023-08-31T02:25:49;94786.00;;;19.46;49.33
55466;BME280;41329;41.594;23.810;2023-08-31T02:28:15;94761.84;;;19.36;49.00
55466;BME280;41329;41.594;23.810;2023-08-31T02:30:43;94781.63;;;19.45;49.12
55466;BME280;41329;41.594;23.810;2023-08-31T02:33:09;94776.56;;;19.40;49.36
55466;BME280;41329;41.594;23.810;2023-08-31T02:35:34;94775.75;;;19.40;49.44
55466;BME280;41329;41.594;23.810;2023-08-31T02:37:59;94796.19;;;19.40;49.31
55466;BME280;41329;41.594;23.810;2023-08-31T02:40:25;94785.09;;;19.37;49.64
55466;BME280;41329;41.594;23.810;2023-08-31T02:42:50;94755.97;;;19.15;49.64
55466;BME280;41329;41.594;23.810;2023-08-31T02:45:17;94792.06;;;19.45;49.88
55466;BME280;41329;41.594;23.810;2023-08-31T02:47:43;94766.75;;;19.32;50.02
55466;BME280;41329;41.594;23.810;2023-08-31T02:50:08;94772.25;;;19.36;49.97
55466;BME280;41329;41.594;23.810;2023-08-31T02:52:34;94783.41;;;19.39;49.34
55466;BME280;41329;41.594;23.810;2023-08-31T02:54:59;94782.72;;;19.35;49.36
55466;BME280;41329;41.594;23.810;2023-08-31T02:57:24;94779.09;;;19.35;49.74
55466;BME280;41329;41.594;23.810;2023-08-31T02:59:50;94775.50;;;19.34;49.83
55466;BME280;41329;41.594;23.810;2023-08-31T03:02:16;94789.09;;;19.36;49.50
55466;BME280;41329;41.594;23.810;2023-08-31T03:04:41;94790.06;;;19.13;50.68
55466;BME280;41329;41.594;23.810;2023-08-31T03:07:07;94793.75;;;18.78;52.34
55466;BME280;41329;41.594;23.810;2023-08-31T03:09:32;94796.03;;;18.12;54.72
55466;BME280;41329;41.594;23.810;2023-08-31T03:11:57;94799.41;;;18.23;54.28
55466;BME280;41329;41.594;23.810;2023-08-31T03:14:23;94804.66;;;18.21;54.59
55466;BME280;41329;41.594;23.810;2023-08-31T03:16:48;94798.34;;;18.17;54.48
55466;BME280;41329;41.594;23.810;2023-08-31T03:19:14;94787.44;;;18.03;54.76
55466;BME280;41329;41.594;23.810;2023-08-31T03:21:39;94785.06;;;18.02;55.05
55466;BME280;41329;41.594;23.810;2023-08-31T03:24:05;94793.75;;;18.07;55.40
55466;BME280;41329;41.594;23.810;2023-08-31T03:26:31;94801.44;;;17.83;55.35
55466;BME280;41329;41.594;23.810;2023-08-31T03:28:56;94814.00;;;17.95;55.35
55466;BME280;41329;41.594;23.810;2023-08-31T03:31:22;94818.72;;;17.98;55.52
55466;BME280;41329;41.594;23.810;2023-08-31T03:33:47;94820.91;;;17.91;56.08
55466;BME280;41329;41.594;23.810;2023-08-31T03:36:13;94818.22;;;18.03;55.72
55466;BME280;41329;41.594;23.810;2023-08-31T03:38:38;94810.97;;;18.06;55.73
55466;BME280;41329;41.594;23.810;2023-08-31T03:41:05;94820.38;;;18.15;55.60
55466;BME280;41329;41.594;23.810;2023-08-31T03:43:30;94814.13;;;18.08;55.17
55466;BME280;41329;41.594;23.810;2023-08-31T03:45:56;94833.38;;;18.06;55.64
55466;BME280;41329;41.594;23.810;2023-08-31T03:48:23;94830.22;;;18.04;55.94
55466;BME280;41329;41.594;23.810;2023-08-31T03:50:52;94835.50;;;18.18;55.88
55466;BME280;41329;41.594;23.810;2023-08-31T03:53:18;94834.75;;;18.17;55.98
55466;BME280;41329;41.594;23.810;2023-08-31T03:55:44;94842.81;;;18.31;55.69
55466;BME280;41329;41.594;23.810;2023-08-31T03:58:09;94847.19;;;18.36;55.30
55466;BME280;41329;41.594;23.810;2023-08-31T04:00:36;94829.16;;;18.33;55.15
55466;BME280;41329;41.594;23.810;2023-08-31T04:03:01;94833.16;;;18.36;55.24
55466;BME280;41329;41.594;23.810;2023-08-31T04:05:28;94860.44;;;18.51;55.15
55466;BME280;41329;41.594;23.810;2023-08-31T04:07:53;94856.03;;;18.50;54.94
55466;BME280;41329;41.594;23.810;2023-08-31T04:10:18;94862.28;;;18.58;55.10
55466;BME280;41329;41.594;23.810;2023-08-31T04:12:44;94868.50;;;18.65;55.02
55466;BME280;41329;41.594;23.810;2023-08-31T04:15:09;94836.38;;;18.54;54.62
55466;BME280;41329;41.594;23.810;2023-08-31T04:17:35;94851.63;;;18.69;54.88
55466;BME280;41329;41.594;23.810;2023-08-31T04:20:00;94859.44;;;18.77;54.40
55466;BME280;41329;41.594;23.810;2023-08-31T04:22:26;94860.47;;;18.83;54.02
55466;BME280;41329;41.594;23.810;2023-08-31T04:24:52;94867.22;;;18.86;54.36
55466;BME280;41329;41.594;23.810;2023-08-31T04:27:18;94864.69;;;18.91;54.31
55466;BME280;41329;41.594;23.810;2023-08-31T04:29:44;94857.97;;;18.89;53.70
55466;BME280;41329;41.594;23.810;2023-08-31T04:32:09;94862.59;;;18.95;52.66
55466;BME280;41329;41.594;23.810;2023-08-31T04:34:35;94857.69;;;18.83;52.40
55466;BME280;41329;41.594;23.810;2023-08-31T04:37:01;94877.44;;;18.96;52.38
55466;BME280;41329;41.594;23.810;2023-08-31T04:39:27;94873.91;;;18.92;52.45
55466;BME280;41329;41.594;23.810;2023-08-31T04:41:52;94882.94;;;18.99;53.16
55466;BME280;41329;41.594;23.810;2023-08-31T04:44:17;94889.16;;;19.07;53.74
55466;BME280;41329;41.594;23.810;2023-08-31T04:46:43;94888.28;;;19.10;53.96
55466;BME280;41329;41.594;23.810;2023-08-31T04:49:08;94893.75;;;19.17;53.44
55466;BME280;41329;41.594;23.810;2023-08-31T04:51:35;94893.75;;;19.17;53.07
55466;BME280;41329;41.594;23.810;2023-08-31T04:54:02;94894.78;;;19.23;53.09
55466;BME280;41329;41.594;23.810;2023-08-31T04:56:31;94898.75;;;19.25;53.11
55466;BME280;41329;41.594;23.810;2023-08-31T04:58:58;94902.88;;;19.21;52.97
55466;BME280;41329;41.594;23.810;2023-08-31T05:01:23;94908.47;;;19.21;52.88
55466;BME280;41329;41.594;23.810;2023-08-31T05:03:48;94911.22;;;19.24;53.13
55466;BME280;41329;41.594;23.810;2023-08-31T05:06:14;94899.63;;;19.22;53.18
55466;BME280;41329;41.594;23.810;2023-08-31T05:08:39;94889.38;;;19.32;53.28
55466;BME280;41329;41.594;23.810;2023-08-31T05:11:05;94892.38;;;19.41;53.01
55466;BME280;41329;41.594;23.810;2023-08-31T05:13:30;94899.38;;;19.49;51.86
55466;BME280;41329;41.594;23.810;2023-08-31T05:15:55;94899.38;;;19.49;51.36
55466;BME280;41329;41.594;23.810;2023-08-31T05:18:21;94890.53;;;19.50;51.66
55466;BME280;41329;41.594;23.810;2023-08-31T05:20:46;94892.34;;;19.57;51.49
55466;BME280;41329;41.594;23.810;2023-08-31T05:23:14;94887.38;;;19.64;51.48
55466;BME280;41329;41.594;23.810;2023-08-31T05:25:43;94887.72;;;19.66;51.07
55466;BME280;41329;41.594;23.810;2023-08-31T05:28:08;94896.53;;;19.81;51.00
55466;BME280;41329;41.594;23.810;2023-08-31T05:30:34;94905.56;;;19.88;50.81
55466;BME280;41329;41.594;23.810;2023-08-31T05:33:00;94911.63;;;19.87;50.52
55466;BME280;41329;41.594;23.810;2023-08-31T05:35:26;94891.75;;;19.65;50.28
55466;BME280;41329;41.594;23.810;2023-08-31T05:37:51;94909.81;;;19.64;51.80
55466;BME280;41329;41.594;23.810;2023-08-31T05:40:16;94895.16;;;19.57;52.52
55466;BME280;41329;41.594;23.810;2023-08-31T05:42:43;94907.94;;;19.74;52.36
55466;BME280;41329;41.594;23.810;2023-08-31T05:45:09;94906.63;;;19.78;51.82
55466;BME280;41329;41.594;23.810;2023-08-31T05:47:34;94908.72;;;19.90;51.68
55466;BME280;41329;41.594;23.810;2023-08-31T05:50:00;94916.28;;;19.93;51.72
55466;BME280;41329;41.594;23.810;2023-08-31T05:52:26;94912.78;;;19.89;52.23
55466;BME280;41329;41.594;23.810;2023-08-31T05:54:51;94902.06;;;19.84;52.71
55466;BME280;41329;41.594;23.810;2023-08-31T05:57:19;94911.97;;;19.89;53.53
55466;BME280;41329;41.594;23.810;2023-08-31T05:59:47;94920.66;;;19.94;54.29
55466;BME280;41329;41.594;23.810;2023-08-31T06:02:12;94914.41;;;19.87;54.31
55466;BME280;41329;41.594;23.810;2023-08-31T06:04:38;94899.88;;;19.92;54.39
55466;BME280;41329;41.594;23.810;2023-08-31T06:07:03;94915.22;;;19.87;54.56
55466;BME280;41329;41.594;23.810;2023-08-31T06:09:29;94918.88;;;20.00;55.04
55466;BME280;41329;41.594;23.810;2023-08-31T06:11:54;94904.94;;;19.97;53.62
55466;BME280;41329;41.594;23.810;2023-08-31T06:14:19;94917.59;;;19.89;53.37
55466;BME280;41329;41.594;23.810;2023-08-31T06:16:45;94909.34;;;19.82;53.35
55466;BME280;41329;41.594;23.810;2023-08-31T06:19:10;94912.31;;;19.91;53.24
55466;BME280;41329;41.594;23.810;2023-08-31T06:21:36;94913.22;;;19.88;52.87
55466;BME280;41329;41.594;23.810;2023-08-31T06:24:01;94913.25;;;20.00;52.95
55466;BME280;41329;41.594;23.810;2023-08-31T06:26:29;94918.34;;;20.05;52.51
55466;BME280;41329;41.594;23.810;2023-08-31T06:28:54;94921.34;;;20.14;51.83
55466;BME280;41329;41.594;23.810;2023-08-31T06:31:21;94923.50;;;20.23;51.79
55466;BME280;41329;41.594;23.810;2023-08-31T06:33:46;94913.66;;;20.31;51.75
55466;BME280;41329;41.594;23.810;2023-08-31T06:36:11;94912.53;;;20.28;50.90
55466;BME280;41329;41.594;23.810;2023-08-31T06:38:37;94920.16;;;20.28;50.75
55466;BME280;41329;41.594;23.810;2023-08-31T06:41:02;94934.16;;;20.44;50.86
55466;BME280;41329;41.594;23.810;2023-08-31T06:43:28;94919.41;;;20.40;50.45
55466;BME280;41329;41.594;23.810;2023-08-31T06:45:53;94915.75;;;20.55;50.60
55466;BME280;41329;41.594;23.810;2023-08-31T06:48:19;94926.16;;;20.71;49.74
55466;BME280;41329;41.594;23.810;2023-08-31T06:50:44;94930.69;;;20.93;49.99
55466;BME280;41329;41.594;23.810;2023-08-31T06:53:10;94927.81;;;21.22;50.02
55466;BME280;41329;41.594;23.810;2023-08-31T06:55:35;94922.31;;;21.31;48.99
55466;BME280;41329;41.594;23.810;2023-08-31T06:58:01;94913.63;;;21.50;48.57
55466;BME280;41329;41.594;23.810;2023-08-31T07:00:27;94929.41;;;21.73;47.38
55466;BME280;41329;41.594;23.810;2023-08-31T07:02:53;94935.22;;;21.91;47.59
55466;BME280;41329;41.594;23.810;2023-08-31T07:05:18;94928.53;;;22.10;46.43
55466;BME280;41329;41.594;23.810;2023-08-31T07:07:51;94937.97;;;22.16;46.20
55466;BME280;41329;41.594;23.810;2023-08-31T07:10:17;94928.47;;;22.22;45.50
55466;BME280;41329;41.594;23.810;2023-08-31T07:12:42;94927.19;;;22.36;45.84
55466;BME280;41329;41.594;23.810;2023-08-31T07:15:08;94937.84;;;22.53;46.02
55466;BME280;41329;41.594;23.810;2023-08-31T07:17:33;94929.19;;;22.69;46.17
55466;BME280;41329;41.594;23.810;2023-08-31T07:19:58;94934.63;;;22.85;45.29
55466;BME280;41329;41.594;23.810;2023-08-31T07:22:24;94933.69;;;23.10;45.58
55466;BME280;41329;41.594;23.810;2023-08-31T07:24:49;94944.16;;;23.31;45.73
55466;BME280;41329;41.594;23.810;2023-08-31T07:27:15;94926.06;;;23.50;44.60
55466;BME280;41329;41.594;23.810;2023-08-31T07:29:40;94930.06;;;23.71;44.00
55466;BME280;41329;41.594;23.810;2023-08-31T07:32:06;94912.66;;;23.81;43.81
55466;BME280;41329;41.594;23.810;2023-08-31T07:34:31;94913.69;;;23.96;43.59
55466;BME280;41329;41.594;23.810;2023-08-31T07:36:57;94916.53;;;24.14;42.41
55466;BME280;41329;41.594;23.810;2023-08-31T07:39:22;94932.28;;;24.42;41.71
55466;BME280;41329;41.594;23.810;2023-08-31T07:41:47;94923.00;;;24.33;41.16
55466;BME280;41329;41.594;23.810;2023-08-31T07:44:13;94920.63;;;24.40;41.75
55466;BME280;41329;41.594;23.810;2023-08-31T07:46:38;94929.47;;;24.60;41.72
55466;BME280;41329;41.594;23.810;2023-08-31T07:49:03;94929.97;;;24.77;41.86
55466;BME280;41329;41.594;23.810;2023-08-31T07:51:29;94907.59;;;24.88;41.07
55466;BME280;41329;41.594;23.810;2023-08-31T07:53:55;94921.88;;;25.11;40.61
55466;BME280;41329;41.594;23.810;2023-08-31T07:56:22;94904.59;;;25.00;40.36
55466;BME280;41329;41.594;23.810;2023-08-31T07:58:48;94909.56;;;25.23;40.36
55466;BME280;41329;41.594;23.810;2023-08-31T08:01:13;94912.50;;;25.47;40.42
55466;BME280;41329;41.594;23.810;2023-08-31T08:03:39;94902.69;;;25.66;40.09
55466;BME280;41329;41.594;23.810;2023-08-31T08:06:04;94911.84;;;25.93;39.86
55466;BME280;41329;41.594;23.810;2023-08-31T08:08:29;94909.31;;;25.95;38.36
55466;BME280;41329;41.594;23.810;2023-08-31T08:10:55;94899.06;;;25.89;38.70
55466;BME280;41329;41.594;23.810;2023-08-31T08:13:21;94902.56;;;25.84;38.60
55466;BME280;41329;41.594;23.810;2023-08-31T08:15:47;94897.31;;;26.00;38.91
55466;BME280;41329;41.594;23.810;2023-08-31T08:18:12;94888.34;;;25.93;38.80
55466;BME280;41329;41.594;23.810;2023-08-31T08:20:38;94906.31;;;26.22;38.74
55466;BME280;41329;41.594;23.810;2023-08-31T08:23:05;94907.25;;;26.43;38.47
55466;BME280;41329;41.594;23.810;2023-08-31T08:25:30;94898.19;;;26.53;38.27
55466;BME280;41329;41.594;23.810;2023-08-31T08:27:55;94897.78;;;26.69;38.21
55466;BME280;41329;41.594;23.810;2023-08-31T08:30:21;94892.97;;;26.75;37.85
55466;BME280;41329;41.594;23.810;2023-08-31T08:32:46;94889.28;;;26.98;38.21
55466;BME280;41329;41.594;23.810;2023-08-31T08:35:12;94886.25;;;27.02;36.66
55466;BME280;41329;41.594;23.810;2023-08-31T08:37:37;94885.56;;;27.07;36.90
55466;BME280;41329;41.594;23.810;2023-08-31T08:40:03;94885.56;;;27.07;36.13
55466;BME280;41329;41.594;23.810;2023-08-31T08:42:33;94886.97;;;27.26;36.01
55466;BME280;41329;41.594;23.810;2023-08-31T08:45:05;94890.91;;;27.28;35.41
55466;BME280;41329;41.594;23.810;2023-08-31T08:47:32;94872.06;;;27.31;35.33
55466;BME280;41329;41.594;23.810;2023-08-31T08:49:58;94874.69;;;27.49;35.29
55466;BME280;41329;41.594;23.810;2023-08-31T08:52:25;94869.56;;;27.67;35.09
55466;BME280;41329;41.594;23.810;2023-08-31T08:54:51;94877.47;;;27.93;34.77
55466;BME280;41329;41.594;23.810;2023-08-31T08:57:17;94859.84;;;27.89;33.94
55466;BME280;41329;41.594;23.810;2023-08-31T08:59:43;94864.91;;;27.99;34.26
55466;BME280;41329;41.594;23.810;2023-08-31T09:02:10;94876.81;;;28.38;34.16
55466;BME280;41329;41.594;23.810;2023-08-31T09:04:36;94877.66;;;28.64;33.07
55466;BME280;41329;41.594;23.810;2023-08-31T09:07:01;94851.69;;;28.36;32.12
55466;BME280;41329;41.594;23.810;2023-08-31T09:09:27;94876.25;;;28.54;32.44
55466;BME280;41329;41.594;23.810;2023-08-31T09:11:53;94871.91;;;28.58;31.47
55466;BME280;41329;41.594;23.810;2023-08-31T09:14:20;94849.78;;;28.48;31.45
55466;BME280;41329;41.594;23.810;2023-08-31T09:16:50;94876.28;;;28.79;32.71
55466;BME280;41329;41.594;23.810;2023-08-31T09:19:24;94869.72;;;28.93;32.02
55466;BME280;41329;41.594;23.810;2023-08-31T09:21:51;94872.00;;;29.09;31.09
55466;BME280;41329;41.594;23.810;2023-08-31T09:24:17;94870.22;;;29.12;30.84
55466;BME280;41329;41.594;23.810;2023-08-31T09:26:47;94880.19;;;29.27;31.32
55466;BME280;41329;41.594;23.810;2023-08-31T09:29:13;94877.03;;;29.51;31.94
55466;BME280;41329;41.594;23.810;2023-08-31T09:31:43;94873.97;;;29.85;31.49
55466;BME280;41329;41.594;23.810;2023-08-31T09:34:09;94857.78;;;30.08;31.18
55466;BME280;41329;41.594;23.810;2023-08-31T09:36:36;94880.56;;;30.39;30.13
55466;BME280;41329;41.594;23.810;2023-08-31T09:39:01;94842.38;;;30.31;29.14
55466;BME280;41329;41.594;23.810;2023-08-31T09:41:27;94866.09;;;30.53;29.45
55466;BME280;41329;41.594;23.810;2023-08-31T09:43:52;94865.50;;;30.38;28.48
55466;BME280;41329;41.594;23.810;2023-08-31T09:46:19;94853.81;;;30.36;29.52
55466;BME280;41329;41.594;23.810;2023-08-31T09:48:45;94838.19;;;30.26;29.04
55466;BME280;41329;41.594;23.810;2023-08-31T09:51:14;94850.47;;;30.49;28.92
55466;BME280;41329;41.594;23.810;2023-08-31T09:53:41;94860.16;;;30.68;28.33
55466;BME280;41329;41.594;23.810;2023-08-31T09:56:08;94855.97;;;30.58;28.07
55466;BME280;41329;41.594;23.810;2023-08-31T09:58:38;94848.03;;;30.78;28.76
55466;BME280;41329;41.594;23.810;2023-08-31T10:01:05;94844.44;;;31.00;28.72
55466;BME280;41329;41.594;23.810;2023-08-31T10:03:31;94837.19;;;31.10;27.59
55466;BME280;41329;41.594;23.810;2023-08-31T10:05:58;94849.91;;;31.03;28.30
55466;BME280;41329;41.594;23.810;2023-08-31T10:08:25;94850.97;;;31.11;27.69
55466;BME280;41329;41.594;23.810;2023-08-31T10:10:52;94856.22;;;31.24;28.06
55466;BME280;41329;41.594;23.810;2023-08-31T10:13:19;94861.94;;;31.29;27.89
55466;BME280;41329;41.594;23.810;2023-08-31T10:15:48;94846.78;;;31.07;26.84
55466;BME280;41329;41.594;23.810;2023-08-31T10:18:14;94851.53;;;31.26;27.86
55466;BME280;41329;41.594;23.810;2023-08-31T10:20:43;94844.28;;;31.31;26.91
55466;BME280;41329;41.594;23.810;2023-08-31T10:23:09;94843.50;;;31.47;27.01
55466;BME280;41329;41.594;23.810;2023-08-31T10:28:25;94844.78;;;31.57;26.72
55466;BME280;41329;41.594;23.810;2023-08-31T10:31:10;94831.53;;;31.65;25.97
55466;BME280;41329;41.594;23.810;2023-08-31T10:33:46;94849.47;;;31.38;25.58
55466;BME280;41329;41.594;23.810;2023-08-31T10:36:16;94837.53;;;31.34;25.81
55466;BME280;41329;41.594;23.810;2023-08-31T10:38:45;94849.72;;;31.62;26.88
55466;BME280;41329;41.594;23.810;2023-08-31T10:51:39;94842.97;;;31.98;24.80
55466;BME280;41329;41.594;23.810;2023-08-31T10:54:12;94839.31;;;32.03;24.70
55466;BME280;41329;41.594;23.810;2023-08-31T11:02:10;94829.94;;;32.08;23.91
55466;BME280;41329;41.594;23.810;2023-08-31T11:04:55;94837.69;;;32.24;23.58
55466;BME280;41329;41.594;23.810;2023-08-31T11:07:26;94848.66;;;32.14;22.47
55466;BME280;41329;41.594;23.810;2023-08-31T11:10:07;94835.41;;;32.00;22.59
55466;BME280;41329;41.594;23.810;2023-08-31T11:12:32;94812.25;;;32.04;22.95
55466;BME280;41329;41.594;23.810;2023-08-31T11:14:58;94825.53;;;32.01;23.28
55466;BME280;41329;41.594;23.810;2023-08-31T11:17:24;94835.13;;;32.04;22.82
55466;BME280;41329;41.594;23.810;2023-08-31T11:19:49;94827.06;;;32.13;22.61
55466;BME280;41329;41.594;23.810;2023-08-31T11:22:15;94823.69;;;32.09;22.26
55466;BME280;41329;41.594;23.810;2023-08-31T11:24:40;94817.41;;;32.33;22.86
55466;BME280;41329;41.594;23.810;2023-08-31T11:27:09;94825.13;;;32.60;22.33
55466;BME280;41329;41.594;23.810;2023-08-31T11:29:43;94811.03;;;32.62;22.49
55466;BME280;41329;41.594;23.810;2023-08-31T11:32:08;94814.34;;;32.77;22.21
55466;BME280;41329;41.594;23.810;2023-08-31T11:34:34;94811.47;;;32.77;21.77
55466;BME280;41329;41.594;23.810;2023-08-31T11:37:02;94801.88;;;32.69;21.84
55466;BME280;41329;41.594;23.810;2023-08-31T11:39:28;94801.75;;;32.97;21.97
55466;BME280;41329;41.594;23.810;2023-08-31T11:41:54;94811.88;;;33.03;20.76
55466;BME280;41329;41.594;23.810;2023-08-31T11:44:20;94794.16;;;33.05;21.62
55466;BME280;41329;41.594;23.810;2023-08-31T11:46:46;94813.22;;;33.37;21.73
55466;BME280;41329;41.594;23.810;2023-08-31T11:49:19;94806.28;;;33.57;21.24
55466;BME280;41329;41.594;23.810;2023-08-31T11:51:47;94809.91;;;33.63;20.63
55466;BME280;41329;41.594;23.810;2023-08-31T11:54:16;94811.72;;;33.60;20.55
55466;BME280;41329;41.594;23.810;2023-08-31T11:56:43;94795.25;;;33.66;21.17
55466;BME280;41329;41.594;23.810;2023-08-31T11:59:14;94793.13;;;33.67;20.71
55466;BME280;41329;41.594;23.810;2023-08-31T12:01:40;94802.06;;;33.93;21.25
55466;BME280;41329;41.594;23.810;2023-08-31T12:04:21;94799.91;;;33.99;20.60
55466;BME280;41329;41.594;23.810;2023-08-31T12:06:49;94801.59;;;33.89;20.98
55466;BME280;41329;41.594;23.810;2023-08-31T12:09:15;94796.75;;;33.73;20.94
55466;BME280;41329;41.594;23.810;2023-08-31T12:11:40;94796.75;;;33.43;20.53
55466;BME280;41329;41.594;23.810;2023-08-31T12:14:23;94789.25;;;33.35;20.76
55466;BME280;41329;41.594;23.810;2023-08-31T12:16:49;94796.16;;;33.15;21.15
55466;BME280;41329;41.594;23.810;2023-08-31T12:19:15;94798.75;;;33.13;21.86
55466;BME280;41329;41.594;23.810;2023-08-31T12:21:42;94787.94;;;33.30;21.02
55466;BME280;41329;41.594;23.810;2023-08-31T12:24:08;94789.13;;;33.51;21.27
55466;BME280;41329;41.594;23.810;2023-08-31T12:26:34;94801.19;;;33.44;20.58
55466;BME280;41329;41.594;23.810;2023-08-31T12:29:00;94787.34;;;33.08;21.08
55466;BME280;41329;41.594;23.810;2023-08-31T12:31:26;94775.38;;;33.04;20.45
55466;BME280;41329;41.594;23.810;2023-08-31T12:33:51;94790.50;;;33.04;20.87
55466;BME280;41329;41.594;23.810;2023-08-31T12:36:16;94763.00;;;32.85;21.35
55466;BME280;41329;41.594;23.810;2023-08-31T12:38:42;94783.25;;;32.98;20.53
55466;BME280;41329;41.594;23.810;2023-08-31T12:41:07;94793.22;;;32.86;20.59
55466;BME280;41329;41.594;23.810;2023-08-31T12:43:34;94792.22;;;32.72;21.55
55466;BME280;41329;41.594;23.810;2023-08-31T12:45:59;94778.97;;;32.69;21.62
55466;BME280;41329;41.594;23.810;2023-08-31T12:48:26;94779.34;;;32.95;21.91
55466;BME280;41329;41.594;23.810;2023-08-31T12:50:51;94777.69;;;33.11;21.19
55466;BME280;41329;41.594;23.810;2023-08-31T12:53:20;94776.47;;;33.36;21.54
55466;BME280;41329;41.594;23.810;2023-08-31T12:55:45;94759.31;;;33.25;21.50
55466;BME280;41329;41.594;23.810;2023-08-31T12:58:11;94774.03;;;33.10;22.58
55466;BME280;41329;41.594;23.810;2023-08-31T13:00:36;94767.72;;;32.82;23.04
55466;BME280;41329;41.594;23.810;2023-08-31T13:03:02;94770.59;;;32.82;22.67
55466;BME280;41329;41.594;23.810;2023-08-31T13:05:28;94775.00;;;32.83;22.64
55466;BME280;41329;41.594;23.810;2023-08-31T13:07:54;94768.50;;;32.77;22.60
55466;BME280;41329;41.594;23.810;2023-08-31T13:10:19;94775.84;;;32.62;22.40
55466;BME280;41329;41.594;23.810;2023-08-31T13:12:45;94787.41;;;32.51;22.67
55466;BME280;41329;41.594;23.810;2023-08-31T13:15:10;94765.75;;;32.55;22.66
55466;BME280;41329;41.594;23.810;2023-08-31T13:17:36;94775.84;;;32.62;22.62